createdAt,value
2023-05-12T00:01:02.934Z,42.39
2023-05-12T00:03:29.916Z,42.76
2023-05-12T00:05:56.807Z,42.92
2023-05-12T00:08:23.606Z,43.03
2023-05-12T00:10:51.889Z,43.23
2023-05-12T00:13:18.910Z,43.78
2023-05-12T00:15:45.723Z,43.53
2023-05-12T00:18:12.692Z,43.43
2023-05-12T00:20:39.601Z,43.61
2023-05-12T00:23:06.412Z,43.50
2023-05-12T00:25:33.875Z,43.60
2023-05-12T00:28:00.687Z,43.38
2023-05-12T00:30:27.871Z,43.62
2023-05-12T00:32:55.191Z,43.77
2023-05-12T00:35:22.124Z,43.90
2023-05-12T00:37:48.885Z,44.23
2023-05-12T00:40:15.828Z,44.37
2023-05-12T00:42:43.659Z,44.67
2023-05-12T00:45:10.897Z,44.64
2023-05-12T00:47:37.739Z,44.36
2023-05-12T00:50:04.938Z,44.11
2023-05-12T00:52:31.842Z,44.41
2023-05-12T00:54:59.381Z,44.43
2023-05-12T00:57:27.957Z,44.57
2023-05-12T00:59:56.011Z,44.52
2023-05-12T01:02:23.178Z,44.58
2023-05-12T01:04:51.589Z,44.90
2023-05-12T01:07:21.036Z,44.93
2023-05-12T01:09:48.338Z,45.16
2023-05-12T01:12:15.511Z,45.31
2023-05-12T01:14:43.045Z,45.42
2023-05-12T01:17:13.317Z,45.68
2023-05-12T01:19:49.396Z,45.79
2023-05-12T01:22:16.968Z,46.05
2023-05-12T01:24:52.897Z,46.46
2023-05-12T01:27:19.824Z,46.73
2023-05-12T01:29:47.193Z,46.97
2023-05-12T01:32:15.899Z,47.22
2023-05-12T01:34:43.247Z,46.95
2023-05-12T01:37:10.694Z,47.12
2023-05-12T01:39:37.833Z,47.35
2023-05-12T01:42:05.665Z,47.22
2023-05-12T01:44:32.657Z,47.54
2023-05-12T01:46:59.490Z,47.53
2023-05-12T01:49:26.844Z,47.68
2023-05-12T01:51:53.604Z,47.86
2023-05-12T01:54:25.687Z,47.85
2023-05-12T01:56:52.473Z,47.91
2023-05-12T01:59:19.303Z,47.82
2023-05-12T02:01:46.256Z,47.87
2023-05-12T02:04:14.392Z,48.21
2023-05-12T02:06:42.469Z,48.02
2023-05-12T02:09:09.216Z,48.33
2023-05-12T02:11:36.819Z,48.13
2023-05-12T02:14:04.040Z,48.42
2023-05-12T02:16:30.989Z,48.43
2023-05-12T02:18:57.868Z,48.65
2023-05-12T02:21:24.739Z,48.92
2023-05-12T02:23:51.628Z,48.94
2023-05-12T02:26:19.595Z,49.45
2023-05-12T02:28:46.448Z,49.70
2023-05-12T02:31:13.249Z,49.59
2023-05-12T02:33:40.080Z,49.39
2023-05-12T02:36:07.316Z,49.59
2023-05-12T02:38:34.166Z,49.64
2023-05-12T02:41:01.722Z,49.36
2023-05-12T02:43:28.678Z,49.50
2023-05-12T02:45:55.510Z,49.47
2023-05-12T02:48:22.400Z,49.32
2023-05-12T02:50:49.194Z,49.32
2023-05-12T02:53:16.016Z,49.18
2023-05-12T02:55:42.959Z,49.05
2023-05-12T02:58:10.442Z,49.30
2023-05-12T03:00:37.177Z,49.38
2023-05-12T03:03:04.220Z,49.63
2023-05-12T03:05:31.339Z,49.66
2023-05-12T03:07:59.088Z,49.81
2023-05-12T03:10:25.911Z,50.08
2023-05-12T03:12:52.968Z,50.01
2023-05-12T03:15:20.293Z,50.17
2023-05-12T03:17:47.224Z,50.37
2023-05-12T03:20:14.379Z,50.25
2023-05-12T03:22:43.237Z,50.70
2023-05-12T03:25:10.883Z,51.09
2023-05-12T03:27:37.792Z,51.06
2023-05-12T03:30:07.984Z,51.00
2023-05-12T03:32:39.207Z,50.98
2023-05-12T03:35:08.468Z,51.03
2023-05-12T03:37:35.381Z,50.91
2023-05-12T03:40:02.303Z,51.03
2023-05-12T03:42:30.316Z,51.20
2023-05-12T03:44:57.063Z,51.00
2023-05-12T03:47:24.057Z,51.03
2023-05-12T03:49:51.129Z,51.04
2023-05-12T03:52:17.921Z,51.33
2023-05-12T03:54:45.100Z,51.09
2023-05-12T03:57:12.697Z,51.18
2023-05-12T03:59:39.473Z,50.99
2023-05-12T04:02:07.850Z,51.15
2023-05-12T04:04:34.780Z,51.43
2023-05-12T04:07:02.091Z,51.15
2023-05-12T04:09:31.441Z,51.53
2023-05-12T04:11:58.954Z,51.48
2023-05-12T04:14:35.206Z,51.84
2023-05-12T04:17:06.282Z,51.91
2023-05-12T04:19:33.510Z,52.09
2023-05-12T04:22:00.356Z,51.96
2023-05-12T04:24:28.013Z,51.86
2023-05-12T04:26:54.827Z,52.09
2023-05-12T04:29:21.708Z,52.32
2023-05-12T04:31:48.732Z,52.30
2023-05-12T04:34:15.633Z,52.36
2023-05-12T04:36:42.399Z,52.82
2023-05-12T04:39:09.706Z,53.35
2023-05-12T04:41:36.874Z,53.36
2023-05-12T04:44:03.746Z,53.26
2023-05-12T04:46:30.988Z,53.14
2023-05-12T04:48:57.862Z,52.95
2023-05-12T04:51:24.871Z,52.83
2023-05-12T04:53:51.790Z,52.62
2023-05-12T04:56:19.213Z,52.60
2023-05-12T04:58:46.471Z,52.39
2023-05-12T05:01:13.800Z,52.08
2023-05-12T05:03:41.254Z,51.75
2023-05-12T05:06:08.506Z,51.49
2023-05-12T05:08:35.452Z,51.49
2023-05-12T05:11:03.300Z,51.43
2023-05-12T05:13:31.379Z,51.48
2023-05-12T05:15:58.291Z,51.48
2023-05-12T05:18:25.724Z,51.33
2023-05-12T05:23:24.602Z,50.98
2023-05-12T05:25:51.617Z,50.95
2023-05-12T05:28:18.405Z,50.87
2023-05-12T05:30:45.325Z,50.62
2023-05-12T05:33:13.364Z,50.54
2023-05-12T05:35:40.350Z,50.59
2023-05-12T05:38:07.154Z,50.46
2023-05-12T05:40:44.990Z,50.39
2023-05-12T05:43:18.801Z,50.17
2023-05-12T05:45:45.638Z,50.08
2023-05-12T05:48:12.737Z,50.06
2023-05-12T05:50:39.619Z,49.94
2023-05-12T05:53:06.790Z,49.80
2023-05-12T05:55:33.767Z,49.45
2023-05-12T05:58:01.141Z,49.16
2023-05-12T06:00:28.054Z,49.26
2023-05-12T06:02:55.730Z,48.78
2023-05-12T06:05:22.953Z,48.76
2023-05-12T06:07:49.978Z,48.58
2023-05-12T06:10:16.817Z,48.45
2023-05-12T06:12:45.198Z,48.33
2023-05-12T06:15:12.250Z,48.06
2023-05-12T06:17:39.588Z,47.95
2023-05-12T06:20:07.468Z,47.97
2023-05-12T06:22:34.856Z,47.91
2023-05-12T06:25:02.058Z,47.79
2023-05-12T06:27:28.809Z,47.60
2023-05-12T06:29:55.793Z,47.50
2023-05-12T06:32:22.576Z,47.24
2023-05-12T06:34:49.782Z,47.03
2023-05-12T06:37:16.978Z,46.90
2023-05-12T06:39:43.823Z,46.70
2023-05-12T06:42:11.681Z,46.86
2023-05-12T06:44:42.505Z,46.74
2023-05-12T06:47:09.720Z,47.07
2023-05-12T06:49:38.108Z,47.31
2023-05-12T06:52:06.751Z,47.03
2023-05-12T06:54:33.806Z,47.16
2023-05-12T06:57:00.854Z,46.86
2023-05-12T06:59:27.678Z,46.90
2023-05-12T07:01:54.423Z,46.79
2023-05-12T07:04:21.756Z,46.67
2023-05-12T07:06:48.528Z,46.62
2023-05-12T07:09:15.320Z,46.11
2023-05-12T07:11:42.186Z,45.78
2023-05-12T07:14:08.931Z,45.77
2023-05-12T07:16:36.413Z,45.66
2023-05-12T07:19:03.332Z,45.60
2023-05-12T07:21:30.757Z,45.16
2023-05-12T07:23:57.674Z,44.87
2023-05-12T07:26:24.474Z,44.60
2023-05-12T07:28:51.378Z,44.41
2023-05-12T07:31:18.203Z,43.55
2023-05-12T07:33:45.012Z,43.43
2023-05-12T07:36:11.784Z,43.68
2023-05-12T07:38:38.560Z,43.85
2023-05-12T07:41:05.376Z,43.49
2023-05-12T07:43:32.127Z,43.18
2023-05-12T07:46:01.141Z,42.48
2023-05-12T07:48:28.030Z,41.87
2023-05-12T07:50:55.085Z,42.02
2023-05-12T07:53:21.882Z,42.14
2023-05-12T07:55:48.712Z,41.94
2023-05-12T07:58:15.631Z,42.18
2023-05-12T08:00:42.568Z,42.21
2023-05-12T08:03:09.458Z,42.14
2023-05-12T08:05:36.625Z,42.36
2023-05-12T08:08:03.498Z,42.47
2023-05-12T08:10:32.677Z,42.56
2023-05-12T08:12:59.414Z,42.45
2023-05-12T08:15:26.257Z,41.86
2023-05-12T08:17:53.104Z,41.25
2023-05-12T08:20:20.349Z,40.94
2023-05-12T08:22:47.943Z,40.82
2023-05-12T08:25:14.909Z,40.66
2023-05-12T08:27:42.032Z,40.19
2023-05-12T08:30:09.823Z,40.03
2023-05-12T08:32:36.889Z,39.22
2023-05-12T08:35:03.928Z,38.75
2023-05-12T08:37:33.029Z,38.11
2023-05-12T08:40:01.306Z,37.43
2023-05-12T08:42:37.366Z,37.10
2023-05-12T08:45:04.526Z,37.79
2023-05-12T08:47:33.285Z,37.97
2023-05-12T08:50:02.172Z,38.01
2023-05-12T08:52:33.438Z,38.02
2023-05-12T08:55:01.020Z,37.58
2023-05-12T08:57:29.858Z,37.75
2023-05-12T08:59:57.509Z,37.88
2023-05-12T09:02:24.688Z,37.59
2023-05-12T09:04:52.200Z,36.26
2023-05-12T09:07:19.805Z,35.36
2023-05-12T09:09:48.809Z,34.97
2023-05-12T09:12:17.011Z,34.63
2023-05-12T09:14:45.217Z,34.61
2023-05-12T09:17:12.764Z,34.54
2023-05-12T09:19:39.590Z,34.04
2023-05-12T09:22:06.400Z,33.64
2023-05-12T09:24:40.047Z,32.69
2023-05-12T09:27:07.316Z,31.98
2023-05-12T09:29:37.458Z,31.34
2023-05-12T09:32:12.162Z,30.77
2023-05-12T09:34:41.602Z,30.07
2023-05-12T09:37:08.651Z,29.52
2023-05-12T09:39:36.505Z,29.09
2023-05-12T09:42:03.456Z,28.26
2023-05-12T09:44:31.675Z,28.33
2023-05-12T09:47:07.169Z,28.29
2023-05-12T09:49:34.153Z,27.87
2023-05-12T09:52:01.314Z,27.48
2023-05-12T09:54:30.642Z,26.76
2023-05-12T09:57:02.496Z,26.46
2023-05-12T09:59:33.964Z,26.35
2023-05-12T10:02:01.681Z,26.04
2023-05-12T10:04:39.521Z,25.65
2023-05-12T10:07:08.567Z,25.46
2023-05-12T10:09:35.350Z,25.96
2023-05-12T10:12:03.172Z,26.10
2023-05-12T10:14:29.994Z,25.79
2023-05-12T10:16:56.859Z,25.54
2023-05-12T10:19:23.754Z,25.09
2023-05-12T10:21:50.536Z,24.91
2023-05-12T10:24:17.510Z,24.22
2023-05-12T10:26:44.854Z,23.89
2023-05-12T10:29:12.524Z,23.61
2023-05-12T10:31:39.332Z,23.55
2023-05-12T10:34:06.931Z,23.57
2023-05-12T10:36:47.517Z,23.77
2023-05-12T10:39:15.674Z,23.87
2023-05-12T10:41:42.913Z,23.99
2023-05-12T10:44:12.560Z,23.94
2023-05-12T10:46:39.373Z,23.93
2023-05-12T10:49:06.099Z,24.42
2023-05-12T10:51:34.478Z,24.86
2023-05-12T10:54:03.943Z,24.77
2023-05-12T10:56:32.005Z,25.18
2023-05-12T10:59:13.108Z,25.47
2023-05-12T11:01:41.672Z,26.03
2023-05-12T11:04:16.864Z,26.08
2023-05-12T11:06:45.042Z,26.36
2023-05-12T11:09:13.291Z,26.60
2023-05-12T11:11:40.685Z,26.56
2023-05-12T11:14:08.021Z,26.33
2023-05-12T11:16:34.845Z,25.36
2023-05-12T11:22:23.742Z,24.20
2023-05-12T11:24:52.172Z,23.49
2023-05-12T11:27:19.983Z,22.96
2023-05-12T11:29:58.572Z,23.09
2023-05-12T11:32:25.317Z,23.25
2023-05-12T11:34:52.384Z,23.50
2023-05-12T11:37:20.422Z,23.60
2023-05-12T11:39:47.464Z,24.16
2023-05-12T11:42:15.117Z,24.48
2023-05-12T11:44:47.805Z,24.53
2023-05-12T11:47:15.536Z,24.13
2023-05-12T11:49:49.996Z,23.44
2023-05-12T11:52:17.839Z,22.79
2023-05-12T11:54:50.185Z,22.07
2023-05-12T11:57:32.790Z,21.71
2023-05-12T12:00:00.900Z,22.40
2023-05-12T12:02:28.229Z,22.82
2023-05-12T12:04:55.353Z,22.98
2023-05-12T12:07:32.310Z,23.41
2023-05-12T12:10:10.130Z,23.65
2023-05-12T12:12:38.415Z,24.27
2023-05-12T12:15:05.926Z,25.04
2023-05-12T12:17:32.637Z,25.60
2023-05-12T12:19:59.506Z,26.19
2023-05-12T12:22:26.440Z,26.17
2023-05-12T12:24:53.171Z,26.29
2023-05-12T12:27:19.779Z,25.86
2023-05-12T12:29:46.824Z,25.52
2023-05-12T12:32:13.484Z,25.29
2023-05-12T12:34:41.166Z,24.61
2023-05-12T12:37:07.750Z,23.62
2023-05-12T12:39:35.419Z,23.11
2023-05-12T12:42:02.609Z,22.53
2023-05-12T12:44:29.384Z,22.23
2023-05-12T12:46:56.026Z,21.83
2023-05-12T12:49:24.078Z,21.66
2023-05-12T12:51:51.010Z,21.40
2023-05-12T12:54:17.951Z,21.09
2023-05-12T12:56:44.586Z,21.52
2023-05-12T12:59:11.343Z,21.48
2023-05-12T13:01:38.107Z,21.66
2023-05-12T13:04:05.248Z,22.10
2023-05-12T13:06:32.020Z,22.52
2023-05-12T13:08:59.419Z,23.06
2023-05-12T13:11:26.066Z,23.52
2023-05-12T13:13:52.877Z,24.02
2023-05-12T13:16:19.701Z,24.53
2023-05-12T13:18:46.818Z,25.14
2023-05-12T13:21:13.465Z,25.44
2023-05-12T13:23:42.253Z,25.81
2023-05-12T13:26:08.921Z,26.26
2023-05-12T13:28:36.881Z,26.81
2023-05-12T13:31:05.643Z,27.30
2023-05-12T13:33:33.029Z,27.64
2023-05-12T13:35:59.951Z,27.93
2023-05-12T13:38:26.601Z,28.23
2023-05-12T13:40:54.425Z,28.49
2023-05-12T13:43:21.568Z,28.61
2023-05-12T13:45:48.259Z,28.78
2023-05-12T13:48:15.228Z,28.95
2023-05-12T13:50:44.589Z,29.27
2023-05-12T13:53:12.390Z,29.69
2023-05-12T13:55:48.599Z,29.90
2023-05-12T13:58:15.463Z,30.21
2023-05-12T14:00:42.670Z,30.46
2023-05-12T14:03:09.465Z,30.66
2023-05-12T14:05:37.541Z,30.63
2023-05-12T14:08:04.461Z,30.56
2023-05-12T14:10:33.097Z,30.61
2023-05-12T14:12:59.878Z,30.58
2023-05-12T14:15:39.947Z,30.49
2023-05-12T14:18:14.272Z,30.72
2023-05-12T14:20:41.480Z,30.55
2023-05-12T14:23:07.960Z,30.65
2023-05-12T14:25:34.784Z,30.76
2023-05-12T14:28:02.012Z,30.75
2023-05-12T14:30:29.543Z,30.91
2023-05-12T14:32:56.766Z,31.29
2023-05-12T14:35:26.932Z,31.59
2023-05-12T14:37:54.397Z,31.93
2023-05-12T14:40:21.133Z,31.97
2023-05-12T14:42:47.988Z,32.13
2023-05-12T14:45:15.055Z,32.28
2023-05-12T14:47:42.125Z,32.43
2023-05-12T14:50:09.544Z,32.48
2023-05-12T14:52:39.294Z,32.60
2023-05-12T14:55:11.791Z,32.60
2023-05-12T14:57:40.040Z,32.74
2023-05-12T15:00:10.165Z,32.96
2023-05-12T15:02:38.404Z,33.14
2023-05-12T15:05:06.761Z,33.16
2023-05-12T15:07:33.760Z,33.16
2023-05-12T15:10:00.404Z,33.14
2023-05-12T15:12:27.418Z,33.20
2023-05-12T15:14:56.386Z,33.23
2023-05-12T15:17:23.204Z,33.28
2023-05-12T15:19:49.792Z,33.47
2023-05-12T15:22:16.330Z,33.67
2023-05-12T15:24:43.127Z,33.85
2023-05-12T15:27:09.650Z,33.85
2023-05-12T15:29:38.157Z,33.91
2023-05-12T15:32:05.730Z,33.83
2023-05-12T15:34:34.431Z,33.89
2023-05-12T15:37:01.300Z,33.76
2023-05-12T15:39:28.172Z,33.70
2023-05-12T15:41:54.773Z,33.75
2023-05-12T15:44:21.435Z,33.74
2023-05-12T15:46:48.107Z,33.73
2023-05-12T15:49:14.813Z,33.86
2023-05-12T15:51:41.926Z,33.89
2023-05-12T15:54:09.527Z,33.76
2023-05-12T15:56:36.854Z,33.77
2023-05-12T15:59:04.608Z,33.85
2023-05-12T16:01:31.602Z,33.92
2023-05-12T16:03:58.946Z,34.17
2023-05-12T16:06:25.679Z,34.22
2023-05-12T16:08:52.563Z,34.08
2023-05-12T16:11:19.174Z,34.05
2023-05-12T16:13:45.798Z,33.93
2023-05-12T16:16:12.685Z,33.78
2023-05-12T16:18:39.629Z,33.77
2023-05-12T16:21:06.624Z,34.01
2023-05-12T16:23:33.282Z,33.98
2023-05-12T16:25:59.887Z,33.95
2023-05-12T16:28:26.637Z,33.98
2023-05-12T16:30:53.276Z,34.05
2023-05-12T16:33:19.827Z,34.07
2023-05-12T16:35:46.601Z,34.28
2023-05-12T16:38:13.281Z,34.48
2023-05-12T16:40:39.910Z,34.50
2023-05-12T16:43:06.481Z,34.65
2023-05-12T16:45:33.415Z,34.71
2023-05-12T16:48:01.117Z,34.79
2023-05-12T16:50:27.758Z,34.86
2023-05-12T16:52:54.252Z,35.09
2023-05-12T16:55:21.261Z,35.52
2023-05-12T16:57:48.491Z,35.78
2023-05-12T17:00:15.786Z,36.08
2023-05-12T17:02:42.935Z,36.25
2023-05-12T17:05:09.549Z,36.60
2023-05-12T17:07:37.478Z,36.43
2023-05-12T17:10:04.523Z,36.58
2023-05-12T17:12:31.766Z,37.04
2023-05-12T17:15:06.810Z,37.23
2023-05-12T17:17:35.248Z,37.59
2023-05-12T17:20:02.388Z,37.48
2023-05-12T17:22:31.484Z,37.67
2023-05-12T17:24:58.360Z,37.88
2023-05-12T17:27:25.906Z,37.99
2023-05-12T17:29:52.987Z,38.39
2023-05-12T17:32:20.024Z,38.70
2023-05-12T17:34:49.631Z,39.11
2023-05-12T17:37:16.921Z,39.23
2023-05-12T17:39:43.870Z,39.58
2023-05-12T17:42:10.505Z,39.85
2023-05-12T17:44:37.332Z,39.85
2023-05-12T17:47:04.400Z,40.09
2023-05-12T17:49:31.145Z,40.48
2023-05-12T17:51:57.917Z,40.42
2023-05-12T17:54:27.005Z,40.72
2023-05-12T17:56:53.875Z,40.88
2023-05-12T17:59:20.458Z,40.87
2023-05-12T18:01:47.362Z,41.20
2023-05-12T18:04:14.733Z,41.36
2023-05-12T18:06:41.387Z,41.62
2023-05-12T18:09:08.120Z,41.72
2023-05-12T18:11:34.961Z,41.79
2023-05-12T18:14:05.041Z,41.97
2023-05-12T18:16:32.771Z,41.95
2023-05-12T18:19:01.856Z,42.06
2023-05-12T18:21:28.714Z,42.15
2023-05-12T18:23:56.063Z,42.45
2023-05-12T18:26:23.579Z,42.48
2023-05-12T18:28:50.327Z,42.66
2023-05-12T18:31:19.194Z,42.77
2023-05-12T18:33:47.864Z,42.72
2023-05-12T18:36:15.739Z,42.80
2023-05-12T18:38:42.609Z,42.91
2023-05-12T18:41:10.741Z,43.11
2023-05-12T18:43:37.723Z,43.57
2023-05-12T18:46:05.537Z,43.83
2023-05-12T18:48:33.433Z,44.12
2023-05-12T18:51:00.696Z,44.28
2023-05-12T18:53:29.748Z,44.17
2023-05-12T18:55:56.660Z,44.53
2023-05-12T18:58:23.322Z,44.68
2023-05-12T19:00:50.199Z,44.72
2023-05-12T19:03:16.981Z,44.28
2023-05-12T19:05:45.636Z,44.02
2023-05-12T19:08:13.008Z,43.69
2023-05-12T19:10:40.347Z,43.39
2023-05-12T19:13:08.106Z,43.15
2023-05-12T19:15:35.649Z,43.11
2023-05-12T19:18:02.955Z,42.99
2023-05-12T19:20:30.549Z,42.78
2023-05-12T19:22:59.071Z,42.78
2023-05-12T19:25:25.963Z,42.89
2023-05-12T19:27:53.391Z,42.68
2023-05-12T19:30:20.609Z,42.63
2023-05-12T19:32:47.480Z,42.58
2023-05-12T19:35:16.040Z,42.95
2023-05-12T19:37:43.191Z,43.56
2023-05-12T19:40:10.176Z,44.18
2023-05-12T19:42:38.045Z,44.36
2023-05-12T19:45:05.699Z,44.24
2023-05-12T19:47:33.694Z,44.34
2023-05-12T19:50:00.486Z,44.39
2023-05-12T19:52:29.994Z,44.48
2023-05-12T19:54:56.693Z,44.68
2023-05-12T19:57:23.320Z,44.97
2023-05-12T19:59:50.270Z,45.21
2023-05-12T20:02:17.104Z,45.02
2023-05-12T20:04:43.950Z,44.84
2023-05-12T20:07:10.621Z,44.79
2023-05-12T20:09:37.299Z,44.67
2023-05-12T20:12:07.618Z,44.77
2023-05-12T20:14:35.584Z,44.68
2023-05-12T20:17:05.088Z,44.62
2023-05-12T20:19:32.787Z,44.69
2023-05-12T20:21:59.742Z,44.98
2023-05-12T20:24:26.674Z,45.14
2023-05-12T20:26:53.274Z,45.42
2023-05-12T20:29:22.667Z,45.85
2023-05-12T20:31:50.214Z,46.20
2023-05-12T20:34:17.337Z,46.21
2023-05-12T20:36:44.185Z,46.44
2023-05-12T20:39:11.344Z,46.70
2023-05-12T20:41:38.405Z,46.77
2023-05-12T20:44:05.433Z,46.84
2023-05-12T20:46:34.447Z,47.01
2023-05-12T20:49:02.725Z,47.15
2023-05-12T20:51:29.331Z,47.29
2023-05-12T20:53:55.992Z,47.65
2023-05-12T20:56:22.634Z,47.92
2023-05-12T20:58:49.684Z,48.29
2023-05-12T21:01:16.612Z,48.50
2023-05-12T21:03:43.241Z,49.12
2023-05-12T21:06:11.504Z,49.16
2023-05-12T21:08:38.776Z,49.61
2023-05-12T21:11:18.087Z,49.95
2023-05-12T21:13:46.375Z,50.11
2023-05-12T21:16:14.418Z,50.21
2023-05-12T21:18:42.288Z,50.31
2023-05-12T21:21:09.026Z,50.34
2023-05-12T21:23:36.853Z,50.30
2023-05-12T21:26:04.382Z,50.56
2023-05-12T21:28:31.106Z,50.60
2023-05-12T21:30:57.684Z,50.60
2023-05-12T21:33:24.383Z,50.71
2023-05-12T21:35:51.043Z,50.77
2023-05-12T21:38:18.804Z,50.83
2023-05-12T21:40:51.207Z,51.11
2023-05-12T21:43:17.785Z,51.11
2023-05-12T21:45:44.340Z,51.26
2023-05-12T21:48:11.826Z,51.46
2023-05-12T21:50:38.570Z,51.58
2023-05-12T21:53:05.205Z,51.82
2023-05-12T21:55:32.630Z,51.92
2023-05-12T21:57:59.412Z,52.16
2023-05-12T22:00:26.288Z,52.15
2023-05-12T22:02:53.008Z,52.49
2023-05-12T22:05:19.666Z,52.53
2023-05-12T22:07:46.371Z,52.82
2023-05-12T22:10:13.105Z,52.87
2023-05-12T22:12:40.251Z,53.07
2023-05-12T22:15:07.268Z,53.37
2023-05-12T22:17:34.103Z,53.39
2023-05-12T22:20:00.888Z,53.60
2023-05-12T22:22:27.430Z,53.64
2023-05-12T22:24:54.043Z,53.55
2023-05-12T22:27:21.793Z,53.76
2023-05-12T22:29:49.055Z,53.87
2023-05-12T22:32:15.681Z,54.17
2023-05-12T22:34:42.241Z,54.05
2023-05-12T22:37:08.955Z,54.31
2023-05-12T22:39:35.660Z,54.36
2023-05-12T22:42:02.676Z,54.87
2023-05-12T22:44:30.262Z,55.31
2023-05-12T22:46:57.264Z,55.75
2023-05-12T22:49:23.982Z,55.92
2023-05-12T22:51:50.674Z,55.82
2023-05-12T22:54:17.586Z,55.98
2023-05-12T22:56:44.231Z,56.18
2023-05-12T22:59:10.851Z,56.28
2023-05-12T23:01:37.456Z,56.44
2023-05-12T23:04:04.320Z,56.66
2023-05-12T23:06:31.947Z,56.94
2023-05-12T23:08:58.577Z,56.99
2023-05-12T23:11:25.204Z,56.95
2023-05-12T23:13:52.014Z,57.08
2023-05-12T23:16:18.789Z,57.08
2023-05-12T23:18:45.569Z,57.39
2023-05-12T23:21:12.224Z,57.59
2023-05-12T23:23:38.795Z,57.67
2023-05-12T23:26:05.404Z,57.72
2023-05-12T23:28:32.726Z,57.80
2023-05-12T23:30:59.345Z,58.08
2023-05-12T23:33:26.499Z,57.96
2023-05-12T23:35:53.086Z,57.95
2023-05-12T23:39:41.009Z,58.07
2023-05-12T23:42:07.854Z,57.94
2023-05-12T23:44:34.564Z,57.92
2023-05-12T23:47:01.451Z,58.02
2023-05-12T23:49:28.252Z,57.96
2023-05-12T23:51:55.070Z,58.21
2023-05-12T23:54:21.904Z,58.50
2023-05-12T23:56:48.632Z,58.77
2023-05-12T23:59:15.451Z,59.03
